sensor_id;sensor_type;location;lat;lon;timestamp;temperature;humidity
3628;DHT22;1830;49.000;12.074;2024-03-07T00:00:08;5.10;99.90
3628;DHT22;1830;49.000;12.074;2024-03-07T00:02:41;4.90;99.90
3628;DHT22;1830;49.000;12.074;2024-03-07T00:05:09;5.00;99.90
3628;DHT22;1830;49.000;12.074;2024-03-07T00:07:37;5.00;99.90
3628;DHT22;1830;49.000;12.074;2024-03-07T00:10:04;5.00;99.90
3628;DHT22;1830;49.000;12.074;2024-03-07T00:12:32;5.00;99.90
3628;DHT22;1830;49.000;12.074;2024-03-07T00:15:00;4.90;99.90
3628;DHT22;1830;49.000;12.074;2024-03-07T00:17:27;4.90;99.90
3628;DHT22;1830;49.000;12.074;2024-03-07T00:19:54;4.90;99.90
3628;DHT22;1830;49.000;12.074;2024-03-07T00:22:23;4.90;99.90
3628;DHT22;1830;49.000;12.074;2024-03-07T00:24:52;4.90;99.90
3628;DHT22;1830;49.000;12.074;2024-03-07T00:27:19;4.80;99.90
3628;DHT22;1830;49.000;12.074;2024-03-07T00:29:46;4.80;99.90
3628;DHT22;1830;49.000;12.074;2024-03-07T00:32:18;4.70;99.90
3628;DHT22;1830;49.000;12.074;2024-03-07T00:34:45;4.70;99.90
3628;DHT22;1830;49.000;12.074;2024-03-07T00:37:12;4.60;99.90
3628;DHT22;1830;49.000;12.074;2024-03-07T00:39:40;4.60;99.90
3628;DHT22;1830;49.000;12.074;2024-03-07T00:42:08;4.70;99.90
3628;DHT22;1830;49.000;12.074;2024-03-07T00:44:33;4.60;99.90
3628;DHT22;1830;49.000;12.074;2024-03-07T00:47:01;4.70;99.90
3628;DHT22;1830;49.000;12.074;2024-03-07T00:49:28;4.70;99.90
3628;DHT22;1830;49.000;12.074;2024-03-07T00:51:55;4.70;99.90
3628;DHT22;1830;49.000;12.074;2024-03-07T00:54:22;4.70;99.90
3628;DHT22;1830;49.000;12.074;2024-03-07T00:56:50;4.70;99.90
3628;DHT22;1830;49.000;12.074;2024-03-07T00:59:17;4.60;99.90
3628;DHT22;1830;49.000;12.074;2024-03-07T01:01:44;4.60;99.90
3628;DHT22;1830;49.000;12.074;2024-03-07T01:04:11;4.50;99.90
3628;DHT22;1830;49.000;12.074;2024-03-07T01:06:38;4.30;99.90
3628;DHT22;1830;49.000;12.074;2024-03-07T01:09:06;4.30;99.90
3628;DHT22;1830;49.000;12.074;2024-03-07T01:11:39;4.30;99.90
3628;DHT22;1830;49.000;12.074;2024-03-07T01:14:07;4.30;99.90
3628;DHT22;1830;49.000;12.074;2024-03-07T01:16:34;4.40;99.90
3628;DHT22;1830;49.000;12.074;2024-03-07T01:19:01;4.40;99.90
3628;DHT22;1830;49.000;12.074;2024-03-07T01:21:28;4.40;99.90
3628;DHT22;1830;49.000;12.074;2024-03-07T01:23:56;4.30;99.90
3628;DHT22;1830;49.000;12.074;2024-03-07T01:26:22;4.30;99.90
3628;DHT22;1830;49.000;12.074;2024-03-07T01:28:50;4.30;99.90
3628;DHT22;1830;49.000;12.074;2024-03-07T01:31:19;4.20;99.90
3628;DHT22;1830;49.000;12.074;2024-03-07T01:33:45;4.10;99.90
3628;DHT22;1830;49.000;12.074;2024-03-07T01:36:12;4.10;99.90
3628;DHT22;1830;49.000;12.074;2024-03-07T01:38:39;4.10;99.90
3628;DHT22;1830;49.000;12.074;2024-03-07T01:41:06;4.10;99.90
3628;DHT22;1830;49.000;12.074;2024-03-07T01:43:33;4.10;99.90
3628;DHT22;1830;49.000;12.074;2024-03-07T01:46:00;4.10;99.90
3628;DHT22;1830;49.000;12.074;2024-03-07T01:48:28;4.20;99.90
3628;DHT22;1830;49.000;12.074;2024-03-07T01:50:56;4.10;99.90
3628;DHT22;1830;49.000;12.074;2024-03-07T01:53:23;4.10;99.90
3628;DHT22;1830;49.000;12.074;2024-03-07T01:55:51;4.00;99.90
3628;DHT22;1830;49.000;12.074;2024-03-07T01:58:19;4.00;99.90
3628;DHT22;1830;49.000;12.074;2024-03-07T02:00:47;4.00;99.90
3628;DHT22;1830;49.000;12.074;2024-03-07T02:03:14;4.00;99.90
3628;DHT22;1830;49.000;12.074;2024-03-07T02:05:42;4.00;99.90
3628;DHT22;1830;49.000;12.074;2024-03-07T02:08:10;3.90;99.90
3628;DHT22;1830;49.000;12.074;2024-03-07T02:10:37;3.90;99.90
3628;DHT22;1830;49.000;12.074;2024-03-07T02:13:04;4.00;99.90
3628;DHT22;1830;49.000;12.074;2024-03-07T02:15:31;3.90;99.90
3628;DHT22;1830;49.000;12.074;2024-03-07T02:17:58;3.90;99.90
3628;DHT22;1830;49.000;12.074;2024-03-07T02:20:25;3.80;99.90
3628;DHT22;1830;49.000;12.074;2024-03-07T02:22:55;3.80;99.90
3628;DHT22;1830;49.000;12.074;2024-03-07T02:25:21;3.80;99.90
3628;DHT22;1830;49.000;12.074;2024-03-07T02:27:48;3.80;99.90
3628;DHT22;1830;49.000;12.074;2024-03-07T02:30:15;3.80;99.90
3628;DHT22;1830;49.000;12.074;2024-03-07T02:32:45;3.70;99.90
3628;DHT22;1830;49.000;12.074;2024-03-07T02:35:17;3.70;99.90
3628;DHT22;1830;49.000;12.074;2024-03-07T02:37:44;3.60;99.90
3628;DHT22;1830;49.000;12.074;2024-03-07T02:40:14;3.60;99.90
3628;DHT22;1830;49.000;12.074;2024-03-07T02:42:41;3.60;99.90
3628;DHT22;1830;49.000;12.074;2024-03-07T02:45:08;3.50;99.90
3628;DHT22;1830;49.000;12.074;2024-03-07T02:47:38;3.50;99.90
3628;DHT22;1830;49.000;12.074;2024-03-07T02:50:08;3.40;99.90
3628;DHT22;1830;49.000;12.074;2024-03-07T02:52:34;3.50;99.90
3628;DHT22;1830;49.000;12.074;2024-03-07T02:55:01;3.40;99.90
3628;DHT22;1830;49.000;12.074;2024-03-07T02:57:31;3.40;99.90
3628;DHT22;1830;49.000;12.074;2024-03-07T02:59:59;3.20;99.90
3628;DHT22;1830;49.000;12.074;2024-03-07T03:02:26;3.20;99.90
3628;DHT22;1830;49.000;12.074;2024-03-07T03:04:52;3.20;99.90
3628;DHT22;1830;49.000;12.074;2024-03-07T03:07:20;3.20;99.90
3628;DHT22;1830;49.000;12.074;2024-03-07T03:09:47;3.20;99.90
3628;DHT22;1830;49.000;12.074;2024-03-07T03:12:14;3.20;99.90
3628;DHT22;1830;49.000;12.074;2024-03-07T03:14:42;3.20;99.90
3628;DHT22;1830;49.000;12.074;2024-03-07T03:17:09;3.10;99.90
3628;DHT22;1830;49.000;12.074;2024-03-07T03:19:36;3.10;99.90
3628;DHT22;1830;49.000;12.074;2024-03-07T03:22:03;3.10;99.90
3628;DHT22;1830;49.000;12.074;2024-03-07T03:24:30;3.00;99.90
3628;DHT22;1830;49.000;12.074;2024-03-07T03:26:57;3.00;99.90
3628;DHT22;1830;49.000;12.074;2024-03-07T03:29:24;3.00;99.90
3628;DHT22;1830;49.000;12.074;2024-03-07T03:31:55;3.10;99.90
3628;DHT22;1830;49.000;12.074;2024-03-07T03:34:22;2.90;99.90
3628;DHT22;1830;49.000;12.074;2024-03-07T03:36:48;2.90;99.90
3628;DHT22;1830;49.000;12.074;2024-03-07T03:39:15;3.00;99.90
3628;DHT22;1830;49.000;12.074;2024-03-07T03:41:42;3.00;99.90
3628;DHT22;1830;49.000;12.074;2024-03-07T03:44:09;3.00;99.90
3628;DHT22;1830;49.000;12.074;2024-03-07T03:46:37;2.90;99.90
3628;DHT22;1830;49.000;12.074;2024-03-07T03:49:05;2.90;99.90
3628;DHT22;1830;49.000;12.074;2024-03-07T03:51:32;2.90;99.90
3628;DHT22;1830;49.000;12.074;2024-03-07T03:53:59;2.90;99.90
3628;DHT22;1830;49.000;12.074;2024-03-07T03:56:26;2.90;99.90
3628;DHT22;1830;49.000;12.074;2024-03-07T03:58:53;3.10;99.90
3628;DHT22;1830;49.000;12.074;2024-03-07T04:01:19;3.00;99.90
3628;DHT22;1830;49.000;12.074;2024-03-07T04:03:46;3.00;99.90
3628;DHT22;1830;49.000;12.074;2024-03-07T04:06:14;3.00;99.90
3628;DHT22;1830;49.000;12.074;2024-03-07T04:08:41;2.90;99.90
3628;DHT22;1830;49.000;12.074;2024-03-07T04:11:08;3.00;99.90
3628;DHT22;1830;49.000;12.074;2024-03-07T04:13:36;2.90;99.90
3628;DHT22;1830;49.000;12.074;2024-03-07T04:16:03;2.90;99.90
3628;DHT22;1830;49.000;12.074;2024-03-07T04:18:30;2.90;99.90
3628;DHT22;1830;49.000;12.074;2024-03-07T04:20:57;2.90;99.90
3628;DHT22;1830;49.000;12.074;2024-03-07T04:23:25;2.80;99.90
3628;DHT22;1830;49.000;12.074;2024-03-07T04:25:53;2.90;99.90
3628;DHT22;1830;49.000;12.074;2024-03-07T04:28:21;2.80;99.90
3628;DHT22;1830;49.000;12.074;2024-03-07T04:30:48;2.70;99.90
3628;DHT22;1830;49.000;12.074;2024-03-07T04:33:15;2.70;99.90
3628;DHT22;1830;49.000;12.074;2024-03-07T04:35:42;2.70;99.90
3628;DHT22;1830;49.000;12.074;2024-03-07T04:38:09;2.70;99.90
3628;DHT22;1830;49.000;12.074;2024-03-07T04:40:42;2.60;99.90
3628;DHT22;1830;49.000;12.074;2024-03-07T04:43:08;2.70;99.90
3628;DHT22;1830;49.000;12.074;2024-03-07T04:45:36;2.70;99.90
3628;DHT22;1830;49.000;12.074;2024-03-07T04:48:03;2.80;99.90
3628;DHT22;1830;49.000;12.074;2024-03-07T04:50:31;2.70;99.90
3628;DHT22;1830;49.000;12.074;2024-03-07T04:52:58;2.70;99.90
3628;DHT22;1830;49.000;12.074;2024-03-07T04:55:25;2.70;99.90
3628;DHT22;1830;49.000;12.074;2024-03-07T04:57:53;2.70;99.90
3628;DHT22;1830;49.000;12.074;2024-03-07T05:00:20;2.70;99.90
3628;DHT22;1830;49.000;12.074;2024-03-07T05:02:48;2.80;99.90
3628;DHT22;1830;49.000;12.074;2024-03-07T05:05:16;2.70;99.90
3628;DHT22;1830;49.000;12.074;2024-03-07T05:07:48;2.70;99.90
3628;DHT22;1830;49.000;12.074;2024-03-07T05:10:15;2.80;99.90
3628;DHT22;1830;49.000;12.074;2024-03-07T05:12:42;2.80;99.90
3628;DHT22;1830;49.000;12.074;2024-03-07T05:15:10;2.80;99.90
3628;DHT22;1830;49.000;12.074;2024-03-07T05:17:37;2.70;99.90
3628;DHT22;1830;49.000;12.074;2024-03-07T05:20:06;2.70;99.90
3628;DHT22;1830;49.000;12.074;2024-03-07T05:22:35;2.70;99.90
3628;DHT22;1830;49.000;12.074;2024-03-07T05:25:05;2.70;99.90
3628;DHT22;1830;49.000;12.074;2024-03-07T05:27:32;2.70;99.90
3628;DHT22;1830;49.000;12.074;2024-03-07T05:29:59;2.60;99.90
3628;DHT22;1830;49.000;12.074;2024-03-07T05:32:27;2.60;99.90
3628;DHT22;1830;49.000;12.074;2024-03-07T05:34:56;2.50;99.90
3628;DHT22;1830;49.000;12.074;2024-03-07T05:37:23;2.60;99.90
3628;DHT22;1830;49.000;12.074;2024-03-07T05:39:50;2.50;99.90
3628;DHT22;1830;49.000;12.074;2024-03-07T05:42:19;2.50;99.90
3628;DHT22;1830;49.000;12.074;2024-03-07T05:44:46;2.50;99.90
3628;DHT22;1830;49.000;12.074;2024-03-07T05:47:13;2.50;99.90
3628;DHT22;1830;49.000;12.074;2024-03-07T05:49:41;2.50;99.90
3628;DHT22;1830;49.000;12.074;2024-03-07T05:52:48;2.50;99.90
3628;DHT22;1830;49.000;12.074;2024-03-07T05:55:01;2.50;99.90
3628;DHT22;1830;49.000;12.074;2024-03-07T05:57:28;2.50;99.90
3628;DHT22;1830;49.000;12.074;2024-03-07T05:59:55;2.50;99.90
3628;DHT22;1830;49.000;12.074;2024-03-07T06:02:22;2.50;99.90
3628;DHT22;1830;49.000;12.074;2024-03-07T06:04:50;2.50;99.90
3628;DHT22;1830;49.000;12.074;2024-03-07T06:07:17;2.50;99.90
3628;DHT22;1830;49.000;12.074;2024-03-07T06:09:44;2.60;99.90
3628;DHT22;1830;49.000;12.074;2024-03-07T06:12:12;2.60;99.90
3628;DHT22;1830;49.000;12.074;2024-03-07T06:14:39;3.00;99.90
3628;DHT22;1830;49.000;12.074;2024-03-07T06:17:05;2.90;99.90
3628;DHT22;1830;49.000;12.074;2024-03-07T06:19:32;2.80;99.90
3628;DHT22;1830;49.000;12.074;2024-03-07T06:22:07;2.80;99.90
3628;DHT22;1830;49.000;12.074;2024-03-07T06:24:34;2.80;99.90
3628;DHT22;1830;49.000;12.074;2024-03-07T06:27:01;2.80;99.90
3628;DHT22;1830;49.000;12.074;2024-03-07T06:29:29;2.90;99.90
3628;DHT22;1830;49.000;12.074;2024-03-07T06:31:56;2.90;99.90
3628;DHT22;1830;49.000;12.074;2024-03-07T06:34:24;2.80;99.90
3628;DHT22;1830;49.000;12.074;2024-03-07T06:36:52;2.80;99.90
3628;DHT22;1830;49.000;12.074;2024-03-07T06:39:22;2.80;99.90
3628;DHT22;1830;49.000;12.074;2024-03-07T06:41:49;2.80;99.90
3628;DHT22;1830;49.000;12.074;2024-03-07T06:44:15;2.70;99.90
3628;DHT22;1830;49.000;12.074;2024-03-07T06:46:49;2.80;99.90
3628;DHT22;1830;49.000;12.074;2024-03-07T06:49:16;2.90;99.90
3628;DHT22;1830;49.000;12.074;2024-03-07T06:51:43;2.90;99.90
3628;DHT22;1830;49.000;12.074;2024-03-07T06:54:15;3.00;99.90
3628;DHT22;1830;49.000;12.074;2024-03-07T06:56:43;3.00;99.90
3628;DHT22;1830;49.000;12.074;2024-03-07T06:59:10;3.00;99.90
3628;DHT22;1830;49.000;12.074;2024-03-07T07:01:38;3.10;99.90
3628;DHT22;1830;49.000;12.074;2024-03-07T07:04:08;3.10;99.90
3628;DHT22;1830;49.000;12.074;2024-03-07T07:06:35;3.10;99.90
3628;DHT22;1830;49.000;12.074;2024-03-07T07:09:02;3.10;99.90
3628;DHT22;1830;49.000;12.074;2024-03-07T07:11:31;3.10;99.90
3628;DHT22;1830;49.000;12.074;2024-03-07T07:13:59;3.20;99.90
3628;DHT22;1830;49.000;12.074;2024-03-07T07:16:27;3.10;99.90
3628;DHT22;1830;49.000;12.074;2024-03-07T07:18:55;3.10;99.90
3628;DHT22;1830;49.000;12.074;2024-03-07T07:21:22;3.20;99.90
3628;DHT22;1830;49.000;12.074;2024-03-07T07:23:49;3.30;99.90
3628;DHT22;1830;49.000;12.074;2024-03-07T07:26:15;3.30;99.90
3628;DHT22;1830;49.000;12.074;2024-03-07T07:28:42;3.30;99.90
3628;DHT22;1830;49.000;12.074;2024-03-07T07:31:10;3.30;99.90
3628;DHT22;1830;49.000;12.074;2024-03-07T07:33:37;3.10;99.90
3628;DHT22;1830;49.000;12.074;2024-03-07T07:36:04;3.30;99.90
3628;DHT22;1830;49.000;12.074;2024-03-07T07:38:31;3.30;99.90
3628;DHT22;1830;49.000;12.074;2024-03-07T07:40:58;3.20;99.90
3628;DHT22;1830;49.000;12.074;2024-03-07T07:43:26;3.20;99.90
3628;DHT22;1830;49.000;12.074;2024-03-07T07:45:54;3.30;99.90
3628;DHT22;1830;49.000;12.074;2024-03-07T07:48:22;3.40;99.90
3628;DHT22;1830;49.000;12.074;2024-03-07T07:50:49;3.50;99.90
3628;DHT22;1830;49.000;12.074;2024-03-07T07:53:17;3.50;99.90
3628;DHT22;1830;49.000;12.074;2024-03-07T07:55:45;3.60;99.90
3628;DHT22;1830;49.000;12.074;2024-03-07T07:58:14;3.60;99.90
3628;DHT22;1830;49.000;12.074;2024-03-07T08:00:41;3.70;99.90
3628;DHT22;1830;49.000;12.074;2024-03-07T08:03:09;3.70;99.90
3628;DHT22;1830;49.000;12.074;2024-03-07T08:05:38;3.80;99.90
3628;DHT22;1830;49.000;12.074;2024-03-07T08:08:06;3.80;99.90
3628;DHT22;1830;49.000;12.074;2024-03-07T08:10:38;3.90;99.90
3628;DHT22;1830;49.000;12.074;2024-03-07T08:13:05;3.90;99.90
3628;DHT22;1830;49.000;12.074;2024-03-07T08:15:32;3.90;99.90
3628;DHT22;1830;49.000;12.074;2024-03-07T08:18:00;4.00;99.90
3628;DHT22;1830;49.000;12.074;2024-03-07T08:20:27;4.10;99.90
3628;DHT22;1830;49.000;12.074;2024-03-07T08:22:56;4.10;99.90
3628;DHT22;1830;49.000;12.074;2024-03-07T08:25:26;4.10;99.90
3628;DHT22;1830;49.000;12.074;2024-03-07T08:27:55;4.10;99.90
3628;DHT22;1830;49.000;12.074;2024-03-07T08:30:23;4.10;99.90
3628;DHT22;1830;49.000;12.074;2024-03-07T08:32:53;4.20;99.90
3628;DHT22;1830;49.000;12.074;2024-03-07T08:35:21;4.30;99.90
3628;DHT22;1830;49.000;12.074;2024-03-07T08:37:49;4.30;99.90
3628;DHT22;1830;49.000;12.074;2024-03-07T08:40:20;4.40;99.90
3628;DHT22;1830;49.000;12.074;2024-03-07T08:42:48;4.40;99.90
3628;DHT22;1830;49.000;12.074;2024-03-07T08:45:16;4.50;99.90
3628;DHT22;1830;49.000;12.074;2024-03-07T08:47:45;4.70;99.90
3628;DHT22;1830;49.000;12.074;2024-03-07T08:50:13;4.70;99.90
3628;DHT22;1830;49.000;12.074;2024-03-07T08:52:40;4.90;99.90
3628;DHT22;1830;49.000;12.074;2024-03-07T08:55:08;4.90;99.90
3628;DHT22;1830;49.000;12.074;2024-03-07T08:57:38;5.00;99.90
3628;DHT22;1830;49.000;12.074;2024-03-07T09:00:06;5.10;99.90
3628;DHT22;1830;49.000;12.074;2024-03-07T09:02:35;5.10;99.90
3628;DHT22;1830;49.000;12.074;2024-03-07T09:05:02;5.10;99.90
3628;DHT22;1830;49.000;12.074;2024-03-07T09:07:29;5.20;99.90
3628;DHT22;1830;49.000;12.074;2024-03-07T09:09:56;5.30;99.90
3628;DHT22;1830;49.000;12.074;2024-03-07T09:12:23;5.30;99.90
3628;DHT22;1830;49.000;12.074;2024-03-07T09:14:52;5.20;99.90
3628;DHT22;1830;49.000;12.074;2024-03-07T09:17:20;5.20;99.90
3628;DHT22;1830;49.000;12.074;2024-03-07T09:19:48;5.10;99.90
3628;DHT22;1830;49.000;12.074;2024-03-07T09:22:15;5.10;99.90
3628;DHT22;1830;49.000;12.074;2024-03-07T09:24:42;5.10;99.90
3628;DHT22;1830;49.000;12.074;2024-03-07T09:27:09;5.10;99.90
3628;DHT22;1830;49.000;12.074;2024-03-07T09:29:36;5.10;99.90
3628;DHT22;1830;49.000;12.074;2024-03-07T09:32:04;5.10;99.90
3628;DHT22;1830;49.000;12.074;2024-03-07T09:34:33;5.10;99.90
3628;DHT22;1830;49.000;12.074;2024-03-07T09:37:01;5.00;99.90
3628;DHT22;1830;49.000;12.074;2024-03-07T09:39:28;5.00;99.90
3628;DHT22;1830;49.000;12.074;2024-03-07T09:41:56;5.10;99.90
3628;DHT22;1830;49.000;12.074;2024-03-07T09:44:25;5.00;99.90
3628;DHT22;1830;49.000;12.074;2024-03-07T09:46:55;5.10;99.90
3628;DHT22;1830;49.000;12.074;2024-03-07T09:49:28;5.00;99.90
3628;DHT22;1830;49.000;12.074;2024-03-07T09:51:56;5.00;99.90
3628;DHT22;1830;49.000;12.074;2024-03-07T09:54:23;5.00;99.90
3628;DHT22;1830;49.000;12.074;2024-03-07T09:56:52;5.00;99.90
3628;DHT22;1830;49.000;12.074;2024-03-07T09:59:19;5.00;99.90
3628;DHT22;1830;49.000;12.074;2024-03-07T10:01:48;5.00;99.90
3628;DHT22;1830;49.000;12.074;2024-03-07T10:04:21;5.00;99.90
3628;DHT22;1830;49.000;12.074;2024-03-07T10:06:55;5.10;99.90
3628;DHT22;1830;49.000;12.074;2024-03-07T10:09:22;5.00;99.90
3628;DHT22;1830;49.000;12.074;2024-03-07T10:11:56;5.00;99.90
3628;DHT22;1830;49.000;12.074;2024-03-07T10:14:23;5.10;99.90
3628;DHT22;1830;49.000;12.074;2024-03-07T10:16:49;5.00;99.90
3628;DHT22;1830;49.000;12.074;2024-03-07T10:19:16;5.20;99.90
3628;DHT22;1830;49.000;12.074;2024-03-07T10:21:43;5.10;99.90
3628;DHT22;1830;49.000;12.074;2024-03-07T10:24:11;5.20;99.90
3628;DHT22;1830;49.000;12.074;2024-03-07T10:26:38;5.30;99.90
3628;DHT22;1830;49.000;12.074;2024-03-07T10:29:05;5.30;99.90
3628;DHT22;1830;49.000;12.074;2024-03-07T10:31:34;5.40;99.90
3628;DHT22;1830;49.000;12.074;2024-03-07T10:34:03;5.40;99.90
3628;DHT22;1830;49.000;12.074;2024-03-07T10:36:30;5.50;99.90
3628;DHT22;1830;49.000;12.074;2024-03-07T10:38:58;5.70;99.90
3628;DHT22;1830;49.000;12.074;2024-03-07T10:41:44;5.80;99.90
3628;DHT22;1830;49.000;12.074;2024-03-07T10:44:17;5.70;99.90
3628;DHT22;1830;49.000;12.074;2024-03-07T10:46:46;5.80;99.90
3628;DHT22;1830;49.000;12.074;2024-03-07T10:49:19;6.00;99.90
3628;DHT22;1830;49.000;12.074;2024-03-07T10:51:56;6.00;99.90
3628;DHT22;1830;49.000;12.074;2024-03-07T10:54:33;6.10;99.90
3628;DHT22;1830;49.000;12.074;2024-03-07T10:57:15;6.10;99.90
3628;DHT22;1830;49.000;12.074;2024-03-07T10:59:49;6.30;99.90
3628;DHT22;1830;49.000;12.074;2024-03-07T11:02:27;6.40;99.90
3628;DHT22;1830;49.000;12.074;2024-03-07T11:04:58;6.50;99.90
3628;DHT22;1830;49.000;12.074;2024-03-07T11:07:26;6.60;99.90
3628;DHT22;1830;49.000;12.074;2024-03-07T11:09:55;6.50;99.90
3628;DHT22;1830;49.000;12.074;2024-03-07T11:12:24;6.60;99.90
3628;DHT22;1830;49.000;12.074;2024-03-07T11:14:54;6.70;99.90
3628;DHT22;1830;49.000;12.074;2024-03-07T11:17:22;6.80;99.90
3628;DHT22;1830;49.000;12.074;2024-03-07T11:19:49;6.80;99.90
3628;DHT22;1830;49.000;12.074;2024-03-07T11:22:29;7.00;99.90
3628;DHT22;1830;49.000;12.074;2024-03-07T11:25:03;7.00;99.90
3628;DHT22;1830;49.000;12.074;2024-03-07T11:27:36;7.10;99.90
3628;DHT22;1830;49.000;12.074;2024-03-07T11:30:07;7.20;99.90
3628;DHT22;1830;49.000;12.074;2024-03-07T11:32:35;7.20;99.90
3628;DHT22;1830;49.000;12.074;2024-03-07T11:35:04;7.40;99.90
3628;DHT22;1830;49.000;12.074;2024-03-07T11:37:40;7.50;99.90
3628;DHT22;1830;49.000;12.074;2024-03-07T11:40:10;7.60;99.90
3628;DHT22;1830;49.000;12.074;2024-03-07T11:42:46;7.80;99.90
3628;DHT22;1830;49.000;12.074;2024-03-07T11:45:14;7.70;99.90
3628;DHT22;1830;49.000;12.074;2024-03-07T11:47:51;7.70;99.90
3628;DHT22;1830;49.000;12.074;2024-03-07T11:50:23;7.60;99.90
3628;DHT22;1830;49.000;12.074;2024-03-07T11:52:51;7.50;99.90
3628;DHT22;1830;49.000;12.074;2024-03-07T11:55:18;7.60;99.90
3628;DHT22;1830;49.000;12.074;2024-03-07T11:57:48;7.70;99.90
3628;DHT22;1830;49.000;12.074;2024-03-07T12:00:17;7.70;99.90
3628;DHT22;1830;49.000;12.074;2024-03-07T12:02:45;7.70;99.90
3628;DHT22;1830;49.000;12.074;2024-03-07T12:05:14;7.60;99.90
3628;DHT22;1830;49.000;12.074;2024-03-07T12:07:43;7.60;99.90
3628;DHT22;1830;49.000;12.074;2024-03-07T12:10:10;7.50;99.90
3628;DHT22;1830;49.000;12.074;2024-03-07T12:12:36;7.50;99.90
3628;DHT22;1830;49.000;12.074;2024-03-07T12:15:06;7.50;99.90
3628;DHT22;1830;49.000;12.074;2024-03-07T12:17:41;7.40;99.90
3628;DHT22;1830;49.000;12.074;2024-03-07T12:20:09;7.30;99.90
3628;DHT22;1830;49.000;12.074;2024-03-07T12:22:50;7.20;99.90
3628;DHT22;1830;49.000;12.074;2024-03-07T12:25:19;7.10;99.90
3628;DHT22;1830;49.000;12.074;2024-03-07T12:27:47;7.10;99.90
3628;DHT22;1830;49.000;12.074;2024-03-07T12:30:18;7.00;99.90
3628;DHT22;1830;49.000;12.074;2024-03-07T12:32:48;7.00;99.90
3628;DHT22;1830;49.000;12.074;2024-03-07T12:35:15;7.10;99.90
3628;DHT22;1830;49.000;12.074;2024-03-07T12:37:42;7.00;99.90
3628;DHT22;1830;49.000;12.074;2024-03-07T12:40:12;7.10;99.90
3628;DHT22;1830;49.000;12.074;2024-03-07T12:42:46;7.10;99.90
3628;DHT22;1830;49.000;12.074;2024-03-07T12:45:13;7.10;99.90
3628;DHT22;1830;49.000;12.074;2024-03-07T12:47:46;7.10;99.90
3628;DHT22;1830;49.000;12.074;2024-03-07T12:50:16;7.20;99.90
3628;DHT22;1830;49.000;12.074;2024-03-07T12:52:43;7.30;99.90
3628;DHT22;1830;49.000;12.074;2024-03-07T12:55:10;7.30;99.90
3628;DHT22;1830;49.000;12.074;2024-03-07T12:57:38;7.30;99.90
3628;DHT22;1830;49.000;12.074;2024-03-07T13:00:07;7.40;99.90
3628;DHT22;1830;49.000;12.074;2024-03-07T13:02:46;7.40;99.90
3628;DHT22;1830;49.000;12.074;2024-03-07T13:05:13;7.50;99.90
3628;DHT22;1830;49.000;12.074;2024-03-07T13:07:45;7.60;99.90
3628;DHT22;1830;49.000;12.074;2024-03-07T13:10:12;7.50;99.90
3628;DHT22;1830;49.000;12.074;2024-03-07T13:12:40;7.60;99.90
3628;DHT22;1830;49.000;12.074;2024-03-07T13:15:09;7.60;99.90
3628;DHT22;1830;49.000;12.074;2024-03-07T13:17:37;7.50;99.90
3628;DHT22;1830;49.000;12.074;2024-03-07T13:20:08;7.50;99.90
3628;DHT22;1830;49.000;12.074;2024-03-07T13:22:39;7.50;99.90
3628;DHT22;1830;49.000;12.074;2024-03-07T13:25:08;7.40;99.90
3628;DHT22;1830;49.000;12.074;2024-03-07T13:27:41;7.40;99.90
3628;DHT22;1830;49.000;12.074;2024-03-07T13:30:10;7.40;99.90
3628;DHT22;1830;49.000;12.074;2024-03-07T13:32:50;7.40;99.90
3628;DHT22;1830;49.000;12.074;2024-03-07T13:35:19;7.40;99.90
3628;DHT22;1830;49.000;12.074;2024-03-07T13:37:47;7.40;99.90
3628;DHT22;1830;49.000;12.074;2024-03-07T13:40:14;7.30;99.90
3628;DHT22;1830;49.000;12.074;2024-03-07T13:42:54;7.30;99.90
3628;DHT22;1830;49.000;12.074;2024-03-07T13:45:23;7.20;99.90
3628;DHT22;1830;49.000;12.074;2024-03-07T13:47:52;7.20;99.90
3628;DHT22;1830;49.000;12.074;2024-03-07T13:50:22;7.20;99.90
3628;DHT22;1830;49.000;12.074;2024-03-07T13:52:50;7.20;99.90
3628;DHT22;1830;49.000;12.074;2024-03-07T13:58:44;7.10;99.90
3628;DHT22;1830;49.000;12.074;2024-03-07T14:01:25;7.10;99.90
3628;DHT22;1830;49.000;12.074;2024-03-07T14:04:24;7.00;99.90
3628;DHT22;1830;49.000;12.074;2024-03-07T14:07:17;7.00;99.90
3628;DHT22;1830;49.000;12.074;2024-03-07T14:10:00;6.90;99.90
3628;DHT22;1830;49.000;12.074;2024-03-07T14:12:58;6.90;99.90
3628;DHT22;1830;49.000;12.074;2024-03-07T15:00:13;6.70;99.90
3628;DHT22;1830;49.000;12.074;2024-03-07T15:03:04;6.60;99.90
3628;DHT22;1830;49.000;12.074;2024-03-07T15:06:21;6.60;99.90
3628;DHT22;1830;49.000;12.074;2024-03-07T15:09:49;6.60;99.90
3628;DHT22;1830;49.000;12.074;2024-03-07T15:31:56;6.50;99.90
3628;DHT22;1830;49.000;12.074;2024-03-07T15:36:20;6.40;99.90
3628;DHT22;1830;49.000;12.074;2024-03-07T15:52:24;6.30;99.90
3628;DHT22;1830;49.000;12.074;2024-03-07T15:55:12;6.30;99.90
3628;DHT22;1830;49.000;12.074;2024-03-07T15:57:42;6.20;99.90
3628;DHT22;1830;49.000;12.074;2024-03-07T16:00:17;6.30;99.90
3628;DHT22;1830;49.000;12.074;2024-03-07T16:02:55;6.30;99.90
3628;DHT22;1830;49.000;12.074;2024-03-07T16:05:40;6.30;99.90
3628;DHT22;1830;49.000;12.074;2024-03-07T16:08:11;6.20;99.90
3628;DHT22;1830;49.000;12.074;2024-03-07T16:10:43;6.10;99.90
3628;DHT22;1830;49.000;12.074;2024-03-07T16:13:24;6.20;99.90
3628;DHT22;1830;49.000;12.074;2024-03-07T16:16:06;6.10;99.90
3628;DHT22;1830;49.000;12.074;2024-03-07T16:18:44;6.00;99.90
3628;DHT22;1830;49.000;12.074;2024-03-07T16:21:38;6.00;99.90
3628;DHT22;1830;49.000;12.074;2024-03-07T16:24:08;6.00;99.90
3628;DHT22;1830;49.000;12.074;2024-03-07T16:26:42;6.00;99.90
3628;DHT22;1830;49.000;12.074;2024-03-07T16:29:18;6.00;99.90
3628;DHT22;1830;49.000;12.074;2024-03-07T16:31:48;6.00;99.90
3628;DHT22;1830;49.000;12.074;2024-03-07T16:34:15;6.00;99.90
3628;DHT22;1830;49.000;12.074;2024-03-07T16:36:56;5.90;99.90
3628;DHT22;1830;49.000;12.074;2024-03-07T16:39:51;5.70;99.90
3628;DHT22;1830;49.000;12.074;2024-03-07T16:42:24;5.70;99.90
3628;DHT22;1830;49.000;12.074;2024-03-07T16:44:53;5.70;99.90
3628;DHT22;1830;49.000;12.074;2024-03-07T16:47:22;5.70;99.90
3628;DHT22;1830;49.000;12.074;2024-03-07T16:49:51;5.60;99.90
3628;DHT22;1830;49.000;12.074;2024-03-07T16:52:21;5.60;99.90
3628;DHT22;1830;49.000;12.074;2024-03-07T16:54:49;5.50;99.90
3628;DHT22;1830;49.000;12.074;2024-03-07T16:57:21;5.50;99.90
3628;DHT22;1830;49.000;12.074;2024-03-07T16:59:58;5.50;99.90
3628;DHT22;1830;49.000;12.074;2024-03-07T17:02:28;5.50;99.90
3628;DHT22;1830;49.000;12.074;2024-03-07T17:07:57;5.50;99.90
3628;DHT22;1830;49.000;12.074;2024-03-07T17:10:30;5.50;99.90
3628;DHT22;1830;49.000;12.074;2024-03-07T17:13:01;5.50;99.90
3628;DHT22;1830;49.000;12.074;2024-03-07T17:15:35;5.50;99.90
3628;DHT22;1830;49.000;12.074;2024-03-07T17:18:08;5.30;99.90
3628;DHT22;1830;49.000;12.074;2024-03-07T17:20:47;5.30;99.90
3628;DHT22;1830;49.000;12.074;2024-03-07T17:23:20;5.30;99.90
3628;DHT22;1830;49.000;12.074;2024-03-07T17:25:56;5.30;99.90
3628;DHT22;1830;49.000;12.074;2024-03-07T17:28:23;5.30;99.90
3628;DHT22;1830;49.000;12.074;2024-03-07T17:30:51;5.30;99.90
3628;DHT22;1830;49.000;12.074;2024-03-07T17:33:21;5.20;99.90
3628;DHT22;1830;49.000;12.074;2024-03-07T17:35:55;5.30;99.90
3628;DHT22;1830;49.000;12.074;2024-03-07T17:38:33;5.20;99.90
3628;DHT22;1830;49.000;12.074;2024-03-07T17:41:05;5.10;99.90
3628;DHT22;1830;49.000;12.074;2024-03-07T17:43:35;5.10;99.90